createdAt,value
2022-08-31T00:01:22.003Z,57.05
2022-08-31T00:04:26.903Z,57.12
2022-08-31T00:07:35.014Z,57.18
2022-08-31T00:10:41.124Z,57.29
2022-08-31T00:13:49.068Z,57.44
2022-08-31T00:16:56.834Z,57.44
2022-08-31T00:20:03.539Z,57.46
2022-08-31T00:23:10.652Z,57.47
2022-08-31T00:26:17.204Z,57.62
2022-08-31T00:29:22.972Z,57.82
2022-08-31T00:32:30.967Z,57.95
2022-08-31T00:35:37.136Z,58.14
2022-08-31T00:38:43.288Z,58.28
2022-08-31T00:41:53.454Z,58.37
2022-08-31T00:45:00.944Z,58.44
2022-08-31T00:48:06.811Z,58.52
2022-08-31T00:51:18.509Z,58.59
2022-08-31T00:54:20.974Z,58.58
2022-08-31T00:57:34.186Z,58.48
2022-08-31T01:00:39.887Z,58.60
2022-08-31T01:03:45.202Z,58.80
2022-08-31T01:06:50.952Z,58.91
2022-08-31T01:09:57.642Z,59.04
2022-08-31T01:13:04.929Z,59.13
2022-08-31T01:16:16.655Z,59.26
2022-08-31T01:19:26.970Z,59.37
2022-08-31T01:22:49.892Z,59.50
2022-08-31T01:25:58.558Z,59.52
2022-08-31T01:29:08.539Z,59.52
2022-08-31T01:32:13.948Z,59.70
2022-08-31T01:35:20.216Z,59.65
2022-08-31T01:38:27.302Z,59.62
2022-08-31T01:41:33.048Z,59.64
2022-08-31T01:44:39.012Z,59.70
2022-08-31T01:47:45.171Z,59.79
2022-08-31T01:50:50.629Z,60.02
2022-08-31T01:54:02.364Z,60.22
2022-08-31T01:57:08.477Z,60.32
2022-08-31T02:00:23.148Z,60.32
2022-08-31T02:03:28.705Z,60.47
2022-08-31T02:06:34.681Z,60.54
2022-08-31T02:09:40.526Z,60.61
2022-08-31T02:12:48.128Z,60.69
2022-08-31T02:15:55.741Z,60.82
2022-08-31T02:19:02.691Z,60.93
2022-08-31T02:22:08.755Z,61.02
2022-08-31T02:25:15.325Z,61.09
2022-08-31T02:28:21.794Z,61.08
2022-08-31T02:31:29.113Z,61.04
2022-08-31T02:34:36.602Z,61.05
2022-08-31T02:37:43.256Z,61.21
2022-08-31T02:40:50.204Z,61.37
2022-08-31T02:43:57.628Z,61.55
2022-08-31T02:47:04.317Z,61.73
2022-08-31T02:50:18.768Z,61.78
2022-08-31T02:53:25.844Z,61.81
2022-08-31T02:56:30.989Z,61.91
2022-08-31T02:59:37.586Z,61.99
2022-08-31T03:02:44.284Z,61.99
2022-08-31T03:05:50.728Z,62.15
2022-08-31T03:08:59.345Z,62.31
2022-08-31T03:12:05.591Z,62.44
2022-08-31T03:15:11.654Z,62.51
2022-08-31T03:18:18.331Z,62.49
2022-08-31T03:21:24.504Z,62.55
2022-08-31T03:24:31.681Z,62.69
2022-08-31T03:27:37.079Z,62.81
2022-08-31T03:30:42.654Z,62.91
2022-08-31T03:33:48.849Z,62.93
2022-08-31T03:36:55.313Z,62.93
2022-08-31T03:40:02.357Z,63.02
2022-08-31T03:43:10.395Z,63.14
2022-08-31T03:46:17.733Z,63.20
2022-08-31T03:49:23.168Z,63.22
2022-08-31T03:52:39.270Z,63.34
2022-08-31T03:55:47.972Z,63.41
2022-08-31T03:58:52.723Z,63.47
2022-08-31T04:02:17.226Z,63.55
2022-08-31T04:05:43.420Z,63.65
2022-08-31T04:09:05.251Z,63.81
2022-08-31T04:12:12.962Z,63.95
2022-08-31T04:15:25.000Z,64.06
2022-08-31T04:18:42.373Z,64.10
2022-08-31T04:21:50.333Z,64.16
2022-08-31T04:24:56.480Z,64.14
2022-08-31T04:28:03.054Z,64.12
2022-08-31T04:31:13.841Z,64.21
2022-08-31T04:34:21.530Z,64.29
2022-08-31T04:37:27.061Z,64.31
2022-08-31T04:40:34.599Z,64.39
2022-08-31T04:43:43.733Z,64.47
2022-08-31T04:46:52.600Z,64.55
2022-08-31T04:49:58.210Z,64.64
2022-08-31T04:53:04.197Z,64.68
2022-08-31T04:56:13.822Z,64.79
2022-08-31T04:59:23.618Z,64.90
2022-08-31T05:02:39.951Z,64.99
2022-08-31T05:05:48.790Z,65.07
2022-08-31T05:08:54.097Z,65.12
2022-08-31T05:12:01.318Z,65.17
2022-08-31T05:15:11.477Z,65.23
2022-08-31T05:18:20.054Z,65.32
2022-08-31T05:21:39.685Z,65.37
2022-08-31T05:24:49.318Z,65.46
2022-08-31T05:27:55.066Z,65.54
2022-08-31T05:31:01.500Z,65.64
2022-08-31T05:34:13.764Z,65.70
2022-08-31T05:37:25.645Z,65.74
2022-08-31T05:40:31.311Z,65.82
2022-08-31T05:43:38.809Z,65.93
2022-08-31T05:46:52.353Z,65.99
2022-08-31T05:49:57.950Z,66.04
2022-08-31T05:53:04.750Z,66.11
2022-08-31T05:56:20.063Z,66.15
2022-08-31T05:59:26.435Z,66.18
2022-08-31T06:02:35.147Z,66.18
2022-08-31T06:05:43.712Z,66.20
2022-08-31T06:08:54.611Z,66.21
2022-08-31T06:12:01.588Z,66.15
2022-08-31T06:15:11.176Z,66.10
2022-08-31T06:18:18.536Z,66.10
2022-08-31T06:21:27.782Z,66.01
2022-08-31T06:24:36.673Z,65.96
2022-08-31T06:27:45.497Z,65.89
2022-08-31T06:30:55.656Z,65.80
2022-08-31T06:34:03.577Z,65.77
2022-08-31T06:37:18.649Z,65.70
2022-08-31T06:40:23.346Z,65.58
2022-08-31T06:43:39.430Z,65.48
2022-08-31T06:46:50.394Z,65.39
2022-08-31T06:50:03.537Z,65.27
2022-08-31T06:53:08.580Z,65.14
2022-08-31T06:56:39.600Z,65.15
2022-08-31T07:00:08.431Z,65.10
2022-08-31T07:03:34.161Z,65.04
2022-08-31T07:07:22.229Z,65.04
2022-08-31T07:10:37.885Z,64.92
2022-08-31T07:13:51.305Z,64.84
2022-08-31T07:17:10.389Z,64.70
2022-08-31T07:20:19.690Z,64.62
2022-08-31T07:23:31.835Z,64.45
2022-08-31T07:27:02.096Z,64.25
2022-08-31T07:30:10.861Z,64.05
2022-08-31T07:33:16.079Z,63.87
2022-08-31T07:36:28.967Z,63.66
2022-08-31T07:39:56.673Z,63.53
2022-08-31T07:43:03.262Z,63.34
2022-08-31T07:46:11.661Z,63.11
2022-08-31T07:49:21.154Z,62.99
2022-08-31T07:52:47.335Z,62.82
2022-08-31T07:55:59.946Z,62.67
2022-08-31T07:59:10.974Z,62.52
2022-08-31T08:02:20.311Z,62.45
2022-08-31T08:05:29.789Z,62.26
2022-08-31T08:09:12.694Z,62.10
2022-08-31T08:12:09.026Z,61.96
2022-08-31T08:15:22.069Z,61.84
2022-08-31T08:18:30.932Z,61.68
2022-08-31T08:21:37.204Z,61.58
2022-08-31T08:24:45.570Z,61.41
2022-08-31T08:27:58.928Z,61.20
2022-08-31T08:31:09.264Z,61.02
2022-08-31T08:34:16.323Z,60.89
2022-08-31T08:37:41.138Z,60.78
2022-08-31T08:40:54.261Z,60.68
2022-08-31T08:44:03.070Z,60.39
2022-08-31T08:47:13.807Z,59.99
2022-08-31T08:50:25.183Z,59.67
2022-08-31T08:53:30.256Z,59.38
2022-08-31T08:56:38.926Z,59.15
2022-08-31T08:59:46.226Z,58.92
2022-08-31T09:03:08.308Z,58.71
2022-08-31T09:06:32.224Z,58.41
2022-08-31T09:10:22.042Z,58.14
2022-08-31T09:13:56.681Z,57.88
2022-08-31T09:17:39.336Z,57.57
2022-08-31T09:20:45.196Z,57.20
2022-08-31T09:24:17.793Z,56.85
2022-08-31T09:27:27.657Z,56.60
2022-08-31T09:30:37.576Z,56.27
2022-08-31T09:33:48.936Z,55.99
2022-08-31T09:36:56.424Z,55.80
2022-08-31T09:40:07.436Z,55.74
2022-08-31T09:43:20.575Z,55.59
2022-08-31T09:46:43.058Z,55.33
2022-08-31T09:49:53.681Z,55.04
2022-08-31T09:53:04.397Z,54.93
2022-08-31T09:56:28.519Z,54.68
2022-08-31T10:00:02.936Z,54.34
2022-08-31T10:03:25.242Z,54.05
2022-08-31T10:06:54.175Z,53.62
2022-08-31T10:10:06.025Z,53.41
2022-08-31T10:13:18.829Z,53.21
2022-08-31T10:16:40.490Z,52.84
2022-08-31T10:20:02.304Z,52.51
2022-08-31T10:23:19.458Z,52.09
2022-08-31T10:26:34.989Z,51.73
2022-08-31T10:29:50.710Z,51.73
2022-08-31T10:33:02.996Z,51.34
2022-08-31T10:36:15.100Z,51.03
2022-08-31T10:39:31.537Z,51.03
2022-08-31T10:42:46.455Z,50.77
2022-08-31T10:46:01.333Z,50.60
2022-08-31T10:49:08.034Z,50.38
2022-08-31T10:52:36.042Z,50.16
2022-08-31T10:55:53.442Z,49.96
2022-08-31T10:59:23.327Z,49.93
2022-08-31T11:03:14.774Z,49.62
2022-08-31T11:07:04.812Z,49.44
2022-08-31T11:10:30.896Z,49.34
2022-08-31T11:14:21.617Z,49.33
2022-08-31T11:17:57.098Z,49.16
2022-08-31T11:21:40.676Z,48.95
2022-08-31T11:25:21.861Z,48.72
2022-08-31T11:28:37.348Z,48.25
2022-08-31T11:31:45.354Z,48.22
2022-08-31T11:35:05.134Z,48.22
2022-08-31T11:38:11.139Z,47.79
2022-08-31T11:41:18.478Z,47.59
2022-08-31T11:44:26.120Z,47.48
2022-08-31T11:47:51.518Z,47.49
2022-08-31T11:51:15.430Z,47.45
2022-08-31T11:54:42.303Z,47.22
2022-08-31T11:57:52.336Z,47.01
2022-08-31T12:01:06.193Z,46.93
2022-08-31T12:04:16.608Z,46.43
2022-08-31T12:07:24.143Z,46.35
2022-08-31T12:10:49.332Z,46.35
2022-08-31T12:14:08.792Z,46.37
2022-08-31T12:17:44.850Z,46.06
2022-08-31T12:21:32.120Z,45.94
2022-08-31T12:24:49.475Z,45.94
2022-08-31T12:28:14.717Z,45.87
2022-08-31T12:31:27.145Z,45.20
2022-08-31T12:34:33.852Z,45.20
2022-08-31T12:37:48.387Z,45.54
2022-08-31T12:41:07.759Z,45.36
2022-08-31T12:44:14.662Z,45.46
2022-08-31T12:47:41.093Z,45.16
2022-08-31T12:50:57.988Z,45.16
2022-08-31T12:54:18.763Z,44.63
2022-08-31T12:58:00.443Z,44.50
2022-08-31T13:01:09.110Z,44.36
2022-08-31T13:04:16.151Z,44.25
2022-08-31T13:07:48.000Z,44.22
2022-08-31T13:10:55.549Z,44.13
2022-08-31T13:14:02.828Z,43.99
2022-08-31T13:17:31.095Z,43.98
2022-08-31T13:20:37.923Z,43.97
2022-08-31T13:23:57.844Z,43.94
2022-08-31T13:27:30.159Z,43.92
2022-08-31T13:30:40.371Z,43.84
2022-08-31T13:33:49.429Z,43.72
2022-08-31T13:37:02.634Z,43.68
2022-08-31T13:40:09.717Z,43.67
2022-08-31T13:43:16.088Z,43.65
2022-08-31T13:46:30.070Z,43.54
2022-08-31T13:49:41.929Z,43.53
2022-08-31T13:52:59.485Z,43.55
2022-08-31T13:55:56.494Z,43.57
2022-08-31T13:59:02.420Z,43.61
2022-08-31T14:02:24.762Z,43.63
2022-08-31T14:05:46.393Z,43.60
2022-08-31T14:08:52.054Z,43.66
2022-08-31T14:12:04.858Z,43.75
2022-08-31T14:15:13.093Z,43.78
2022-08-31T14:18:32.155Z,43.71
2022-08-31T14:21:50.023Z,43.76
2022-08-31T14:24:57.863Z,43.77
2022-08-31T14:28:03.924Z,43.66
2022-08-31T14:31:14.064Z,43.65
2022-08-31T14:34:39.024Z,43.65
2022-08-31T14:37:35.123Z,43.67
2022-08-31T14:40:41.826Z,43.71
2022-08-31T14:43:48.972Z,43.73
2022-08-31T14:46:57.663Z,43.72
2022-08-31T14:50:06.485Z,43.72
2022-08-31T14:53:14.883Z,43.72
2022-08-31T14:56:26.087Z,43.69
2022-08-31T14:59:35.179Z,43.69
2022-08-31T15:02:44.674Z,43.66
2022-08-31T15:05:50.746Z,43.76
2022-08-31T15:08:57.026Z,43.78
2022-08-31T15:12:07.182Z,43.80
2022-08-31T15:15:16.584Z,43.82
2022-08-31T15:18:23.074Z,43.84
2022-08-31T15:21:30.695Z,43.84
2022-08-31T15:24:38.461Z,43.87
2022-08-31T15:27:44.680Z,43.87
2022-08-31T15:30:51.357Z,43.89
2022-08-31T15:34:05.090Z,43.92
2022-08-31T15:37:12.034Z,43.93
2022-08-31T15:40:20.370Z,43.97
2022-08-31T15:43:27.324Z,43.99
2022-08-31T15:46:52.113Z,44.01
2022-08-31T15:49:59.256Z,44.02
2022-08-31T15:53:13.313Z,44.09
2022-08-31T15:56:19.565Z,44.12
2022-08-31T15:59:25.937Z,44.15
2022-08-31T16:02:31.294Z,44.20
2022-08-31T16:05:43.127Z,44.29
2022-08-31T16:08:49.223Z,44.37
2022-08-31T16:11:54.571Z,44.44
2022-08-31T16:15:00.638Z,44.49
2022-08-31T16:18:09.573Z,44.55
2022-08-31T16:21:22.713Z,44.59
2022-08-31T16:24:32.823Z,44.65
2022-08-31T16:27:38.855Z,44.71
2022-08-31T16:30:45.895Z,44.82
2022-08-31T16:33:53.773Z,44.91
2022-08-31T16:37:04.561Z,44.97
2022-08-31T16:40:10.657Z,45.10
2022-08-31T16:43:18.323Z,45.17
2022-08-31T16:46:42.003Z,45.26
2022-08-31T16:49:48.207Z,45.31
2022-08-31T16:53:00.181Z,45.41
2022-08-31T16:56:08.054Z,45.53
2022-08-31T16:59:17.447Z,45.68
2022-08-31T17:02:25.326Z,45.86
2022-08-31T17:05:31.312Z,45.99
2022-08-31T17:08:39.432Z,46.16
2022-08-31T17:11:54.255Z,46.32
2022-08-31T17:15:02.389Z,46.43
2022-08-31T17:18:08.875Z,46.61
2022-08-31T17:21:16.917Z,46.81
2022-08-31T17:24:22.471Z,46.98
2022-08-31T17:27:32.768Z,47.08
2022-08-31T17:30:40.181Z,47.21
2022-08-31T17:33:44.712Z,47.41
2022-08-31T17:36:51.096Z,47.63
2022-08-31T17:40:00.372Z,47.82
2022-08-31T17:43:06.918Z,47.99
2022-08-31T17:46:14.845Z,48.19
2022-08-31T17:49:19.483Z,48.37
2022-08-31T17:52:27.365Z,48.52
2022-08-31T17:55:33.928Z,48.65
2022-08-31T17:58:39.104Z,48.85
2022-08-31T18:01:45.346Z,49.03
2022-08-31T18:04:51.409Z,49.18
2022-08-31T18:07:58.130Z,49.30
2022-08-31T18:11:07.434Z,49.45
2022-08-31T18:14:12.204Z,49.62
2022-08-31T18:17:22.032Z,49.79
2022-08-31T18:20:28.790Z,49.99
2022-08-31T18:23:34.642Z,50.19
2022-08-31T18:26:44.065Z,50.36
2022-08-31T18:29:52.052Z,50.56
2022-08-31T18:32:59.320Z,50.74
2022-08-31T18:36:06.992Z,50.89
2022-08-31T18:39:22.675Z,50.99
2022-08-31T18:42:39.896Z,51.16
2022-08-31T18:45:47.117Z,51.32
2022-08-31T18:48:55.371Z,51.52
2022-08-31T18:52:04.034Z,51.64
2022-08-31T18:55:12.210Z,51.74
2022-08-31T18:58:19.866Z,51.82
2022-08-31T19:01:28.436Z,51.95
2022-08-31T19:04:33.321Z,52.08
2022-08-31T19:07:39.544Z,52.21
2022-08-31T19:10:46.158Z,52.30
2022-08-31T19:13:53.039Z,52.42
2022-08-31T19:17:03.731Z,52.53
2022-08-31T19:20:10.292Z,52.59
2022-08-31T19:23:18.823Z,52.62
2022-08-31T19:26:22.262Z,52.68
2022-08-31T19:29:30.480Z,52.80
2022-08-31T19:32:35.941Z,52.89
2022-08-31T19:35:45.391Z,53.01
2022-08-31T19:38:53.934Z,53.09
2022-08-31T19:42:01.183Z,53.18
2022-08-31T19:45:40.499Z,53.25
2022-08-31T19:48:19.297Z,53.27
2022-08-31T19:51:27.773Z,53.37
2022-08-31T19:54:37.449Z,53.40
2022-08-31T19:57:44.676Z,53.45
2022-08-31T20:00:52.119Z,53.57
2022-08-31T20:03:58.563Z,53.62
2022-08-31T20:07:07.317Z,53.68
2022-08-31T20:10:15.356Z,53.80
2022-08-31T20:13:22.813Z,53.86
2022-08-31T20:16:34.177Z,53.93
2022-08-31T20:19:38.643Z,54.02
2022-08-31T20:22:46.397Z,54.11
2022-08-31T20:25:54.720Z,54.18
2022-08-31T20:28:59.949Z,54.23
2022-08-31T20:32:09.606Z,54.35
2022-08-31T20:35:15.872Z,54.43
2022-08-31T20:38:27.256Z,54.52
2022-08-31T20:41:34.852Z,54.63
2022-08-31T20:44:52.378Z,54.72
2022-08-31T20:48:16.868Z,54.85
2022-08-31T20:51:27.127Z,55.02
2022-08-31T20:54:33.707Z,55.14
2022-08-31T20:57:41.487Z,55.29
2022-08-31T21:00:48.556Z,55.38
2022-08-31T21:03:55.523Z,55.46
2022-08-31T21:07:02.066Z,55.52
2022-08-31T21:10:09.220Z,55.61
2022-08-31T21:13:14.575Z,55.68
2022-08-31T21:16:20.275Z,55.77
2022-08-31T21:19:32.221Z,55.86
2022-08-31T21:22:38.688Z,55.93
2022-08-31T21:25:46.604Z,56.05
2022-08-31T21:28:55.334Z,56.17
2022-08-31T21:32:03.849Z,56.29
2022-08-31T21:35:12.878Z,56.40
2022-08-31T21:38:20.222Z,56.48
2022-08-31T21:41:27.575Z,56.57
2022-08-31T21:44:34.336Z,56.65
2022-08-31T21:47:41.629Z,56.67
2022-08-31T21:50:48.109Z,56.71
2022-08-31T21:53:55.599Z,56.76
2022-08-31T21:57:06.777Z,56.84
2022-08-31T22:00:12.833Z,56.94
2022-08-31T22:03:20.809Z,57.02
2022-08-31T22:06:30.078Z,57.09
2022-08-31T22:09:36.454Z,57.17
2022-08-31T22:12:41.587Z,57.25
2022-08-31T22:15:47.910Z,57.29
2022-08-31T22:19:02.186Z,57.35
2022-08-31T22:22:06.762Z,57.39
2022-08-31T22:25:14.344Z,57.49
2022-08-31T22:28:21.325Z,57.55
2022-08-31T22:31:28.409Z,57.62
2022-08-31T22:34:34.564Z,57.67
2022-08-31T22:37:42.939Z,57.73
2022-08-31T22:40:50.309Z,57.76
2022-08-31T22:43:57.665Z,57.85
2022-08-31T22:47:04.537Z,57.93
2022-08-31T22:50:11.526Z,57.99
2022-08-31T22:53:17.018Z,58.07
2022-08-31T22:56:35.521Z,58.13
2022-08-31T22:59:41.388Z,58.14
2022-08-31T23:02:51.122Z,58.19
2022-08-31T23:05:59.850Z,58.30
2022-08-31T23:09:11.053Z,58.28
2022-08-31T23:12:18.939Z,58.27
2022-08-31T23:15:26.359Z,58.35
2022-08-31T23:18:33.213Z,58.46
2022-08-31T23:21:42.797Z,58.61
2022-08-31T23:25:01.210Z,58.68
2022-08-31T23:28:06.145Z,58.83
2022-08-31T23:31:11.116Z,58.96
2022-08-31T23:34:20.248Z,59.08
2022-08-31T23:37:26.183Z,59.07
2022-08-31T23:40:33.209Z,59.11
2022-08-31T23:43:39.314Z,59.15
2022-08-31T23:46:44.657Z,59.22
2022-08-31T23:49:52.979Z,59.38
2022-08-31T23:53:00.370Z,59.46
2022-08-31T23:56:06.737Z,59.56
2022-08-31T23:59:16.383Z,59.67
